BRX2XD ESMS-ESSA
Flight info
| Callsign | BRX2XD |
|---|---|
| Flight time | N/A |
| Altitude | 37000 |
| Route | NEXIL N851 ROXEN DCT MIKNA N851 PELUP Z226 NILUG |
| Aircraft | A319/M-SDE3FGHIRWY/LB1 |
Departure
| Time | 2026-04-30 11:32 |
|---|---|
| Airport | Malmö Sturup Airport (ESMS) |
Arrival
| Time | N/A |
|---|---|
| Airport | Stockholm-Arlanda Airport (ESSA) |
| Time | Latitude | Longitude | Altitude | Speed | Heading |
|---|---|---|---|---|---|
| 2026-04-30 11:13 | 55.54017 | 13.36785 | 231 ft | 0 kts | 353° |
| 2026-04-30 11:20 | 55.53994 | 13.36790 | 231 ft | 4 kts | 353° |
| 2026-04-30 11:21 | 55.53968 | 13.36794 | 232 ft | 4 kts | 3° |
| 2026-04-30 11:21 | 55.53944 | 13.36783 | 231 ft | 4 kts | 49° |
| 2026-04-30 11:21 | 55.53937 | 13.36758 | 234 ft | 0 kts | 83° |
| 2026-04-30 11:25 | 55.53938 | 13.36772 | 231 ft | 2 kts | 85° |
| 2026-04-30 11:26 | 55.53946 | 13.36901 | 231 ft | 7 kts | 86° |
| 2026-04-30 11:26 | 55.53949 | 13.36991 | 231 ft | 8 kts | 83° |
| 2026-04-30 11:26 | 55.53956 | 13.37087 | 231 ft | 8 kts | 83° |
| 2026-04-30 11:27 | 55.53963 | 13.37189 | 231 ft | 9 kts | 83° |
| 2026-04-30 11:27 | 55.53936 | 13.37265 | 232 ft | 8 kts | 161° |
| 2026-04-30 11:27 | 55.53881 | 13.37275 | 233 ft | 8 kts | 174° |
| 2026-04-30 11:27 | 55.53821 | 13.37285 | 231 ft | 9 kts | 175° |
| 2026-04-30 11:28 | 55.53650 | 13.37324 | 231 ft | 15 kts | 174° |
| 2026-04-30 11:28 | 55.53525 | 13.37350 | 231 ft | 22 kts | 174° |
| 2026-04-30 11:28 | 55.53370 | 13.37380 | 231 ft | 23 kts | 174° |
| 2026-04-30 11:29 | 55.53213 | 13.37411 | 232 ft | 23 kts | 173° |
| 2026-04-30 11:29 | 55.53055 | 13.37442 | 232 ft | 23 kts | 177° |
| 2026-04-30 11:29 | 55.52745 | 13.37507 | 231 ft | 22 kts | 172° |
| 2026-04-30 11:30 | 55.52449 | 13.37589 | 231 ft | 18 kts | 156° |
| 2026-04-30 11:30 | 55.52349 | 13.37712 | 232 ft | 17 kts | 143° |
| 2026-04-30 11:30 | 55.52325 | 13.37858 | 238 ft | 11 kts | 55° |
| 2026-04-30 11:31 | 55.52392 | 13.37877 | 238 ft | 10 kts | 349° |
| 2026-04-30 11:31 | 55.52401 | 13.37874 | 239 ft | 3 kts | 351° |
| 2026-04-30 11:31 | 55.52692 | 13.37811 | 238 ft | 82 kts | 353° |
| 2026-04-30 11:31 | 55.53489 | 13.37647 | 239 ft | 145 kts | 353° |
| 2026-04-30 11:32 | 55.54569 | 13.37413 | 696 ft | 157 kts | 352° |
| 2026-04-30 11:32 | 55.55635 | 13.37210 | 1439 ft | 156 kts | 353° |
| 2026-04-30 11:32 | 55.56716 | 13.37009 | 2242 ft | 156 kts | 353° |
| 2026-04-30 11:33 | 55.59156 | 13.36958 | 3080 ft | 204 kts | 18° |
| 2026-04-30 11:33 | 55.60452 | 13.38363 | 3469 ft | 232 kts | 32° |
| 2026-04-30 11:33 | 55.61833 | 13.40079 | 4115 ft | 249 kts | 33° |
| 2026-04-30 11:33 | 55.63257 | 13.41891 | 5082 ft | 254 kts | 33° |
| 2026-04-30 11:34 | 55.64701 | 13.43736 | 6098 ft | 258 kts | 33° |
| 2026-04-30 11:34 | 55.66163 | 13.45598 | 7144 ft | 259 kts | 34° |
| 2026-04-30 11:34 | 55.67631 | 13.47465 | 8085 ft | 262 kts | 34° |
| 2026-04-30 11:34 | 55.69119 | 13.49354 | 9066 ft | 264 kts | 34° |
| 2026-04-30 11:35 | 55.70617 | 13.51254 | 10034 ft | 266 kts | 35° |
| 2026-04-30 11:35 | 55.72135 | 13.53173 | 10815 ft | 275 kts | 35° |
| 2026-04-30 11:35 | 55.73764 | 13.55231 | 11143 ft | 298 kts | 35° |
| 2026-04-30 11:35 | 55.75490 | 13.57410 | 11775 ft | 308 kts | 35° |
| 2026-04-30 11:36 | 55.77246 | 13.59628 | 12603 ft | 311 kts | 35° |
| 2026-04-30 11:36 | 55.79001 | 13.61849 | 13488 ft | 312 kts | 36° |
| 2026-04-30 11:36 | 55.80785 | 13.64114 | 14366 ft | 314 kts | 36° |
| 2026-04-30 11:36 | 55.82563 | 13.66382 | 15112 ft | 316 kts | 36° |
| 2026-04-30 11:37 | 55.84354 | 13.68670 | 15855 ft | 318 kts | 35° |
| 2026-04-30 11:37 | 55.86156 | 13.70967 | 16573 ft | 320 kts | 35° |
| 2026-04-30 11:37 | 55.87977 | 13.73289 | 17303 ft | 323 kts | 35° |
| 2026-04-30 11:37 | 55.89806 | 13.75625 | 18015 ft | 325 kts | 35° |
| 2026-04-30 11:38 | 55.91651 | 13.77982 | 18728 ft | 328 kts | 36° |
| 2026-04-30 11:38 | 55.93514 | 13.80363 | 19334 ft | 331 kts | 35° |
| 2026-04-30 11:38 | 55.95392 | 13.82770 | 19934 ft | 334 kts | 35° |
| 2026-04-30 11:38 | 55.97285 | 13.85205 | 20529 ft | 337 kts | 35° |
| 2026-04-30 11:39 | 55.99203 | 13.87672 | 21113 ft | 341 kts | 35° |
| 2026-04-30 11:39 | 56.01136 | 13.90155 | 21698 ft | 344 kts | 35° |
| 2026-04-30 11:39 | 56.03089 | 13.92668 | 22281 ft | 347 kts | 35° |
| 2026-04-30 11:39 | 56.05031 | 13.95175 | 22859 ft | 351 kts | 35° |
| 2026-04-30 11:40 | 56.07020 | 13.97752 | 23408 ft | 355 kts | 34° |
| 2026-04-30 11:40 | 56.09028 | 14.00363 | 23949 ft | 358 kts | 34° |
| 2026-04-30 11:40 | 56.11056 | 14.02994 | 24396 ft | 362 kts | 34° |
| 2026-04-30 11:40 | 56.13109 | 14.05651 | 24852 ft | 365 kts | 34° |
| 2026-04-30 11:41 | 56.15175 | 14.08328 | 25299 ft | 367 kts | 34° |
| 2026-04-30 11:41 | 56.17255 | 14.11032 | 25753 ft | 370 kts | 34° |
| 2026-04-30 11:41 | 56.19345 | 14.13753 | 26199 ft | 372 kts | 34° |
| 2026-04-30 11:41 | 56.21446 | 14.16493 | 26639 ft | 375 kts | 34° |
| 2026-04-30 11:42 | 56.23566 | 14.19259 | 27077 ft | 377 kts | 34° |
| 2026-04-30 11:42 | 56.25696 | 14.22043 | 27489 ft | 380 kts | 34° |
| 2026-04-30 11:42 | 56.27841 | 14.24856 | 27918 ft | 383 kts | 34° |
| 2026-04-30 11:42 | 56.29998 | 14.27688 | 28330 ft | 386 kts | 34° |
| 2026-04-30 11:43 | 56.32177 | 14.30548 | 28732 ft | 389 kts | 34° |
| 2026-04-30 11:43 | 56.34380 | 14.33436 | 29127 ft | 392 kts | 34° |
| 2026-04-30 11:43 | 56.36588 | 14.36337 | 29523 ft | 394 kts | 34° |
| 2026-04-30 11:43 | 56.38782 | 14.39227 | 29914 ft | 397 kts | 34° |
| 2026-04-30 11:44 | 56.41020 | 14.42179 | 30299 ft | 399 kts | 34° |
| 2026-04-30 11:44 | 56.43274 | 14.45158 | 30646 ft | 402 kts | 34° |
| 2026-04-30 11:44 | 56.45533 | 14.48153 | 30963 ft | 404 kts | 34° |
| 2026-04-30 11:44 | 56.47802 | 14.51170 | 31282 ft | 406 kts | 34° |
| 2026-04-30 11:45 | 56.50083 | 14.54206 | 31599 ft | 408 kts | 34° |
| 2026-04-30 11:45 | 56.52375 | 14.57262 | 31906 ft | 410 kts | 34° |
| 2026-04-30 11:45 | 56.54681 | 14.60336 | 32229 ft | 412 kts | 34° |
| 2026-04-30 11:45 | 56.56984 | 14.63406 | 32720 ft | 409 kts | 34° |
| 2026-04-30 11:46 | 56.59261 | 14.66453 | 33281 ft | 405 kts | 34° |
| 2026-04-30 11:46 | 56.61521 | 14.69483 | 33783 ft | 403 kts | 34° |
| 2026-04-30 11:46 | 56.63767 | 14.72498 | 34231 ft | 401 kts | 34° |
| 2026-04-30 11:46 | 56.66010 | 14.75512 | 34632 ft | 400 kts | 34° |
| 2026-04-30 11:47 | 56.68246 | 14.78519 | 35000 ft | 400 kts | 34° |
| 2026-04-30 11:47 | 56.69725 | 14.80511 | 35237 ft | 399 kts | 34° |
| 2026-04-30 11:47 | 56.71957 | 14.83517 | 35582 ft | 399 kts | 34° |
| 2026-04-30 11:47 | 56.74184 | 14.86519 | 35919 ft | 399 kts | 34° |
| 2026-04-30 11:48 | 56.76412 | 14.89528 | 36243 ft | 398 kts | 34° |
| 2026-04-30 11:48 | 56.78634 | 14.92540 | 36549 ft | 398 kts | 34° |
| 2026-04-30 11:48 | 56.80857 | 14.95560 | 36855 ft | 398 kts | 34° |
| 2026-04-30 11:48 | 56.83076 | 14.98580 | 37158 ft | 398 kts | 35° |
| 2026-04-30 11:49 | 56.85293 | 15.01603 | 37343 ft | 398 kts | 35° |
| 2026-04-30 11:49 | 56.87512 | 15.04626 | 37379 ft | 396 kts | 35° |
| 2026-04-30 11:49 | 56.91923 | 15.10652 | 37377 ft | 395 kts | 35° |
| 2026-04-30 11:50 | 56.96302 | 15.16663 | 37384 ft | 395 kts | 35° |
| 2026-04-30 11:50 | 57.00701 | 15.22704 | 37375 ft | 395 kts | 34° |
| 2026-04-30 11:51 | 57.05111 | 15.28776 | 37369 ft | 397 kts | 35° |
| 2026-04-30 11:51 | 57.09519 | 15.34880 | 37369 ft | 397 kts | 35° |
| 2026-04-30 11:52 | 57.13934 | 15.40995 | 37370 ft | 397 kts | 35° |
| 2026-04-30 11:52 | 57.18343 | 15.47112 | 37368 ft | 397 kts | 35° |
| 2026-04-30 11:53 | 57.22748 | 15.53250 | 37377 ft | 397 kts | 35° |
| 2026-04-30 11:53 | 57.27152 | 15.59428 | 37369 ft | 397 kts | 35° |
| 2026-04-30 11:54 | 57.31552 | 15.65611 | 37356 ft | 397 kts | 35° |
| 2026-04-30 11:54 | 57.35924 | 15.71780 | 37395 ft | 397 kts | 35° |
| 2026-04-30 11:55 | 57.40305 | 15.77969 | 37386 ft | 395 kts | 35° |
| 2026-04-30 11:55 | 57.44667 | 15.84166 | 37380 ft | 394 kts | 35° |
| 2026-04-30 11:56 | 57.49019 | 15.90353 | 37386 ft | 394 kts | 34° |
| 2026-04-30 11:56 | 57.53365 | 15.96539 | 37373 ft | 393 kts | 35° |
| 2026-04-30 11:57 | 57.57711 | 16.02731 | 37372 ft | 393 kts | 35° |
| 2026-04-30 11:57 | 57.62057 | 16.08967 | 37059 ft | 394 kts | 35° |
| 2026-04-30 11:58 | 57.64223 | 16.12102 | 36788 ft | 394 kts | 35° |
| 2026-04-30 11:58 | 57.66388 | 16.15232 | 36525 ft | 394 kts | 35° |
| 2026-04-30 11:58 | 57.68558 | 16.18361 | 36270 ft | 394 kts | 35° |
| 2026-04-30 11:58 | 57.70730 | 16.21492 | 36018 ft | 394 kts | 35° |
| 2026-04-30 11:59 | 57.72902 | 16.24626 | 35764 ft | 394 kts | 35° |
| 2026-04-30 11:59 | 57.75074 | 16.27770 | 35516 ft | 395 kts | 35° |
| 2026-04-30 11:59 | 57.77247 | 16.30922 | 35268 ft | 395 kts | 35° |
| 2026-04-30 11:59 | 57.79418 | 16.34082 | 35024 ft | 395 kts | 35° |
| 2026-04-30 12:00 | 57.81590 | 16.37243 | 34779 ft | 395 kts | 35° |
| 2026-04-30 12:00 | 57.83766 | 16.40405 | 34537 ft | 396 kts | 34° |
| 2026-04-30 12:00 | 57.85942 | 16.43576 | 34287 ft | 395 kts | 34° |
| 2026-04-30 12:00 | 57.88108 | 16.46740 | 34007 ft | 394 kts | 34° |
| 2026-04-30 12:01 | 57.90264 | 16.49902 | 33734 ft | 393 kts | 34° |
| 2026-04-30 12:01 | 57.92412 | 16.53062 | 33461 ft | 391 kts | 35° |
| 2026-04-30 12:01 | 57.94552 | 16.56219 | 33190 ft | 389 kts | 34° |
| 2026-04-30 12:01 | 57.96681 | 16.59360 | 32933 ft | 388 kts | 34° |
| 2026-04-30 12:02 | 57.98803 | 16.62485 | 32673 ft | 386 kts | 34° |
| 2026-04-30 12:02 | 58.00916 | 16.65603 | 32406 ft | 385 kts | 34° |
| 2026-04-30 12:02 | 58.03019 | 16.68713 | 32145 ft | 383 kts | 34° |
| 2026-04-30 12:02 | 58.05085 | 16.71773 | 31892 ft | 382 kts | 34° |
| 2026-04-30 12:03 | 58.07170 | 16.74864 | 31637 ft | 380 kts | 34° |
| 2026-04-30 12:03 | 58.11315 | 16.81026 | 31135 ft | 377 kts | 34° |
| 2026-04-30 12:03 | 58.13364 | 16.84089 | 30853 ft | 372 kts | 34° |
| 2026-04-30 12:04 | 58.15382 | 16.87110 | 30367 ft | 368 kts | 34° |
| 2026-04-30 12:04 | 58.17375 | 16.90097 | 29873 ft | 362 kts | 34° |
| 2026-04-30 12:04 | 58.19332 | 16.93029 | 29440 ft | 356 kts | 34° |
| 2026-04-30 12:04 | 58.21259 | 16.95916 | 28986 ft | 351 kts | 34° |
| 2026-04-30 12:05 | 58.23162 | 16.98767 | 28550 ft | 346 kts | 34° |
| 2026-04-30 12:05 | 58.25037 | 17.01582 | 28116 ft | 342 kts | 34° |
| 2026-04-30 12:05 | 58.26887 | 17.04370 | 27714 ft | 338 kts | 34° |
| 2026-04-30 12:05 | 58.28721 | 17.07134 | 27322 ft | 334 kts | 34° |
| 2026-04-30 12:06 | 58.30536 | 17.09866 | 26926 ft | 330 kts | 34° |
| 2026-04-30 12:06 | 58.32326 | 17.12561 | 26548 ft | 326 kts | 34° |
| 2026-04-30 12:06 | 58.34095 | 17.15226 | 26158 ft | 322 kts | 34° |
| 2026-04-30 12:06 | 58.35836 | 17.17864 | 25799 ft | 318 kts | 34° |
| 2026-04-30 12:07 | 58.37550 | 17.20475 | 25441 ft | 314 kts | 34° |
| 2026-04-30 12:07 | 58.39250 | 17.23068 | 25081 ft | 312 kts | 34° |
| 2026-04-30 12:07 | 58.40940 | 17.25638 | 24720 ft | 310 kts | 34° |
| 2026-04-30 12:07 | 58.42620 | 17.28189 | 24364 ft | 308 kts | 34° |
| 2026-04-30 12:08 | 58.44291 | 17.30732 | 23995 ft | 307 kts | 34° |
| 2026-04-30 12:08 | 58.45953 | 17.33264 | 23577 ft | 305 kts | 34° |
| 2026-04-30 12:08 | 58.47605 | 17.35793 | 23197 ft | 303 kts | 34° |
| 2026-04-30 12:08 | 58.49243 | 17.38305 | 22832 ft | 301 kts | 34° |
| 2026-04-30 12:09 | 58.50875 | 17.40798 | 22459 ft | 299 kts | 34° |
| 2026-04-30 12:09 | 58.52493 | 17.43279 | 22097 ft | 297 kts | 34° |
| 2026-04-30 12:09 | 58.54097 | 17.45754 | 21721 ft | 295 kts | 34° |
| 2026-04-30 12:09 | 58.55667 | 17.48177 | 21355 ft | 293 kts | 34° |
| 2026-04-30 12:10 | 58.57250 | 17.50621 | 20986 ft | 291 kts | 34° |
| 2026-04-30 12:10 | 58.58824 | 17.53050 | 20618 ft | 290 kts | 34° |
| 2026-04-30 12:10 | 58.60388 | 17.55465 | 20255 ft | 288 kts | 34° |
| 2026-04-30 12:10 | 58.61943 | 17.57870 | 19894 ft | 286 kts | 34° |
| 2026-04-30 12:11 | 58.63490 | 17.60267 | 19524 ft | 285 kts | 34° |
| 2026-04-30 12:11 | 58.65025 | 17.62647 | 19170 ft | 283 kts | 34° |
| 2026-04-30 12:11 | 58.66552 | 17.65013 | 18820 ft | 281 kts | 34° |
| 2026-04-30 12:11 | 58.68069 | 17.67368 | 18447 ft | 280 kts | 34° |
| 2026-04-30 12:12 | 58.69584 | 17.69724 | 18075 ft | 279 kts | 34° |
| 2026-04-30 12:12 | 58.71088 | 17.72064 | 17729 ft | 278 kts | 34° |
| 2026-04-30 12:12 | 58.72587 | 17.74398 | 17379 ft | 277 kts | 34° |
| 2026-04-30 12:12 | 58.74078 | 17.76729 | 17037 ft | 276 kts | 34° |
| 2026-04-30 12:13 | 58.75562 | 17.79051 | 16702 ft | 275 kts | 34° |
| 2026-04-30 12:13 | 58.77044 | 17.81370 | 16364 ft | 274 kts | 34° |
| 2026-04-30 12:13 | 58.78518 | 17.83679 | 16028 ft | 273 kts | 34° |
| 2026-04-30 12:13 | 58.79992 | 17.85985 | 15697 ft | 272 kts | 34° |
| 2026-04-30 12:14 | 58.81483 | 17.88205 | 15367 ft | 269 kts | 29° |
| 2026-04-30 12:14 | 58.83157 | 17.89946 | 15123 ft | 282 kts | 22° |
| 2026-04-30 12:14 | 58.84950 | 17.91600 | 14895 ft | 288 kts | 23° |
| 2026-04-30 12:14 | 58.86759 | 17.93293 | 14658 ft | 289 kts | 23° |
| 2026-04-30 12:15 | 58.88543 | 17.94977 | 14425 ft | 289 kts | 24° |
| 2026-04-30 12:15 | 58.90348 | 17.96691 | 14185 ft | 288 kts | 24° |
| 2026-04-30 12:15 | 58.92149 | 17.98403 | 13926 ft | 288 kts | 23° |
| 2026-04-30 12:15 | 58.93953 | 18.00119 | 13684 ft | 289 kts | 24° |
| 2026-04-30 12:16 | 58.95757 | 18.01834 | 13444 ft | 289 kts | 23° |
| 2026-04-30 12:16 | 58.97559 | 18.03546 | 13210 ft | 288 kts | 23° |
| 2026-04-30 12:16 | 58.99361 | 18.05259 | 12973 ft | 288 kts | 24° |
| 2026-04-30 12:16 | 59.01157 | 18.06970 | 12738 ft | 288 kts | 24° |
| 2026-04-30 12:17 | 59.02351 | 18.08110 | 12575 ft | 287 kts | 24° |
| 2026-04-30 12:18 | 59.02533 | 18.08285 | 12551 ft | 287 kts | 24° |
| 2026-04-30 12:18 | 59.04142 | 18.09547 | 13562 ft | 268 kts | 20° |
| 2026-04-30 12:18 | 59.05914 | 18.11096 | 13162 ft | 286 kts | 23° |
| 2026-04-30 12:18 | 59.07688 | 18.12844 | 12384 ft | 286 kts | 25° |
| 2026-04-30 12:19 | 59.09482 | 18.14492 | 11724 ft | 282 kts | 17° |